Verona, Mississippi
Current Conditions -  °F | °C
As of 12:53 PM on Saturday 20 Dec 2014 (Local Time) from KTUP Reporting Station
Clear Clear  
Wind Chill: 51°   Ceiling: Unl
Heat Index: 51°   Visibility: 10mi
Dew Point: 32°   Wind: 6mph
Humidity: 48%   Direction: 60°ENE
Pressure: 30.21"   Gusts: NA
Location:  34.19°N, 88.72°W
Report Text: KTUP 201853Z 06005KT 10SM CLR 11/00 A3021 RMK AO2 SLP230 T01060000
Loading
Personal Weather Stations






























Interactive Weather Map New forecast layout! Learn more

10-Day Weather Forecast

Advertisements
Track Severe Weather on mobile